ΕΜΥ, Εθνική Μετεωρολογική Υπηρεσία - Δελτία Καιρού, Προγνώσεις

ΑΕΡΟΝΑΥΤΙΛΙΑ

GREEK AIRPORTS CODES

LGTP 301300Z 10010KT 040V160 9999 FEW025 14/02 Q1010 RMK FEW180=

EUROPEAN AIRPORTS CODES

LFPO 301300Z AUTO 04019KT 010V070 CAVOK 08/M10 Q1027 TEMPO04018G30KT=